Time;durP1;ratioP1;P1;durP2;ratioP2;P2;SDS_P1;SDS_P2;PMS_P1;PMS_P2;Temp;Humidity;BMP_temperature;BMP_pressure;BME280_temperature;BME280_humidity;BME280_pressure;Samples;Min_cycle;Max_cycle;Signal;HPM_P1;HPM_P2
2022/11/03 00:00:33;;;;;;;56.33;16.23;;;7.30;97.50;;;;;;5064602;28;20520;-61
2022/11/03 00:02:59;;;;;;;50.73;18.10;;;7.30;97.70;;;;;;5074437;28;20991;-60
2022/11/03 00:08:11;;;;;;;39.63;15.00;;;;;;;;;;5052759;28;20819;-61
2022/11/03 00:10:39;;;;;;;50.30;13.17;;;7.40;97.30;;;;;;5066578;28;20808;-61
2022/11/03 00:13:06;;;;;;;49.17;14.03;;;7.40;97.10;;;;;;5069697;28;20462;-61
2022/11/03 00:15:33;;;;;;;33.90;10.20;;;;;;;;;;5066896;28;20841;-60
2022/11/03 00:18:00;;;;;;;42.13;11.80;;;7.00;97.00;;;;;;5055091;28;21025;-60
2022/11/03 00:20:27;;;;;;;38.87;11.63;;;;;;;;;;5080961;28;20477;-61
2022/11/03 00:22:54;;;;;;;38.87;11.53;;;;;;;;;;5070369;28;20489;-61
2022/11/03 00:25:21;;;;;;;40.80;11.23;;;6.90;97.20;;;;;;5070355;28;20503;-60
2022/11/03 00:27:54;;;;;;;26.70;8.67;;;;;;;;;;5061504;28;21025;-60
2022/11/03 00:30:21;;;;;;;42.67;12.73;;;;;;;;;;5067930;28;20485;-60
2022/11/03 00:32:48;;;;;;;42.10;10.90;;;8.60;98.10;;;;;;5069234;28;20486;-61
2022/11/03 00:35:14;;;;;;;42.63;12.00;;;7.00;97.50;;;;;;5068235;28;21408;-60
2022/11/03 00:37:41;;;;;;;39.90;12.37;;;7.00;97.50;;;;;;5062913;28;20999;-61
2022/11/03 00:40:10;;;;;;;40.60;11.90;;;7.10;97.50;;;;;;5065778;28;20528;-61
2022/11/03 00:42:37;;;;;;;55.33;12.77;;;;;;;;;;5068906;28;20565;-61
2022/11/03 00:45:07;;;;;;;40.57;9.90;;;;;;;;;;5065916;28;20482;-60
2022/11/03 00:48:28;;;;;;;33.10;11.50;;;;;;;;;;5061124;28;20482;-60
2022/11/03 00:50:21;;;;;;;36.93;11.00;;;7.00;96.90;;;;;;5064310;28;20621;-60
2022/11/03 00:52:47;;;;;;;39.30;10.00;;;6.90;96.80;;;;;;5076739;28;20477;-60
2022/11/03 00:55:14;;;;;;;39.23;10.57;;;6.90;96.60;;;;;;5071588;28;21397;-60
2022/11/03 00:57:41;;;;;;;37.93;8.30;;;6.80;96.70;;;;;;5071044;28;20474;-60
2022/11/03 01:00:10;;;;;;;31.40;8.53;;;6.80;96.90;;;;;;5073145;28;20489;-60
2022/11/03 01:02:38;;;;;;;47.43;12.23;;;6.80;96.80;;;;;;5073307;28;20577;-60
2022/11/03 01:07:50;;;;;;;56.20;12.10;;;6.70;97.00;;;;;;5067413;28;20528;-61
2022/11/03 01:10:17;;;;;;;45.73;12.43;;;6.70;97.00;;;;;;5064531;28;20812;-61
2022/11/03 01:12:44;;;;;;;37.53;8.87;;;;;;;;;;5077268;28;20524;-60
2022/11/03 01:15:12;;;;;;;55.43;11.07;;;6.70;96.90;;;;;;5073928;28;20477;-60
2022/11/03 01:17:40;;;;;;;47.63;10.37;;;;;;;;;;5073080;28;20806;-61
2022/11/03 01:20:08;;;;;;;54.20;10.70;;;6.80;96.80;;;;;;5080002;28;20482;-61
2022/11/03 01:22:35;;;;;;;38.60;10.30;;;;;;;;;;5079379;28;20989;-60
2022/11/03 01:25:02;;;;;;;45.70;9.80;;;;;;;;;;5078541;28;20478;-60
2022/11/03 01:27:29;;;;;;;32.13;10.90;;;;;;;;;;5067422;28;20485;-60
2022/11/03 01:29:56;;;;;;;28.17;8.83;;;;;;;;;;5078127;28;20592;-60
2022/11/03 01:32:24;;;;;;;34.63;11.10;;;6.80;96.70;;;;;;5070980;28;20651;-61
2022/11/03 01:34:51;;;;;;;27.80;8.20;;;6.80;96.90;;;;;;5077701;28;20852;-61
2022/11/03 01:37:18;;;;;;;55.70;19.47;;;;;;;;;;5071897;28;20502;-61
2022/11/03 01:39:45;;;;;;;24.93;10.10;;;;;;;;;;5076246;28;20528;-60
2022/11/03 01:42:13;;;;;;;40.73;10.17;;;6.60;97.10;;;;;;5078371;28;20470;-60
2022/11/03 01:44:45;;;;;;;43.23;10.23;;;6.70;97.10;;;;;;5076970;28;20478;-60
2022/11/03 01:47:27;;;;;;;72.67;15.90;;;6.70;97.00;;;;;;5071929;28;20488;-60
2022/11/03 01:49:56;;;;;;;47.50;10.23;;;;;;;;;;5069015;28;20488;-61
2022/11/03 01:52:27;;;;;;;88.17;16.70;;;6.70;96.80;;;;;;5076348;28;20481;-60
2022/11/03 01:54:57;;;;;;;55.10;9.77;;;;;;;;;;5075512;28;20631;-60
2022/11/03 01:57:28;;;;;;;111.67;18.23;;;6.50;96.90;;;;;;5076631;28;20521;-60
2022/11/03 01:59:56;;;;;;;56.07;9.47;;;6.30;97.40;;;;;;5069859;28;20935;-60
2022/11/03 02:02:25;;;;;;;79.07;13.10;;;6.20;97.70;;;;;;5060875;28;20474;-61
2022/11/03 02:04:52;;;;;;;41.77;8.87;;;6.30;97.40;;;;;;5075767;28;20481;-60
2022/11/03 02:07:21;;;;;;;110.67;19.23;;;;;;;;;;5070313;28;20484;-60
2022/11/03 02:09:48;;;;;;;58.53;11.10;;;6.30;97.10;;;;;;5074191;28;20482;-60
2022/11/03 02:12:16;;;;;;;27.27;8.97;;;6.40;97.20;;;;;;5071628;28;20815;-60
2022/11/03 02:14:49;;;;;;;43.80;10.27;;;6.30;97.30;;;;;;5059943;28;20489;-60
2022/11/03 02:17:17;;;;;;;52.80;15.33;;;6.40;97.30;;;;;;5081904;28;20478;-60
2022/11/03 02:19:50;;;;;;;34.07;8.63;;;6.50;97.50;;;;;;5075931;28;20706;-60
2022/11/03 02:23:04;;;;;;;36.53;11.10;;;6.50;97.30;;;;;;5069414;28;20489;-60
2022/11/03 02:25:42;;;;;;;25.30;8.93;;;6.50;97.10;;;;;;5005963;28;21006;-60
2022/11/03 02:28:09;;;;;;;41.63;9.17;;;6.60;97.20;;;;;;4978218;28;21872;-60
2022/11/03 02:30:41;;;;;;;24.50;7.13;;;6.60;97.10;;;;;;5045409;28;20471;-61
2022/11/03 02:33:16;;;;;;;32.47;8.70;;;6.60;97.10;;;;;;5069607;28;20486;-60
2022/11/03 02:35:48;;;;;;;43.40;8.90;;;6.50;97.40;;;;;;5067567;28;20997;-60
2022/11/03 02:38:17;;;;;;;65.67;21.37;;;;;;;;;;5066017;28;20488;-60
2022/11/03 02:40:48;;;;;;;68.17;18.53;;;6.60;97.60;;;;;;5080288;28;20486;-61
2022/11/03 02:43:18;;;;;;;45.93;13.37;;;6.60;97.50;;;;;;5075560;28;20486;-60
2022/11/03 02:45:47;;;;;;;34.80;10.70;;;;;;;;;;5075832;28;20479;-60
2022/11/03 02:48:16;;;;;;;54.40;10.40;;;6.70;97.30;;;;;;5059999;28;20485;-60
2022/11/03 02:50:43;;;;;;;45.40;8.03;;;6.70;97.30;;;;;;5085087;28;21033;-60
2022/11/03 02:53:12;;;;;;;54.00;8.87;;;6.70;97.10;;;;;;5074070;28;20489;-60
2022/11/03 02:55:45;;;;;;;51.17;11.90;;;6.70;97.30;;;;;;5074732;28;20862;-61
2022/11/03 02:58:19;;;;;;;41.20;10.50;;;6.70;97.20;;;;;;5067445;28;20482;-60
2022/11/03 03:00:50;;;;;;;48.40;10.83;;;;;;;;;;5068630;28;20508;-60
2022/11/03 03:03:21;;;;;;;68.50;26.40;;;;;;;;;;5073271;28;20528;-60
2022/11/03 03:05:49;;;;;;;48.53;19.50;;;6.80;97.40;;;;;;5078797;28;20466;-60
2022/11/03 03:08:16;;;;;;;55.80;18.70;;;;;;;;;;5062024;28;20479;-61
2022/11/03 03:10:46;;;;;;;29.47;12.00;;;6.90;97.30;;;;;;5070260;28;20986;-60
2022/11/03 03:13:19;;;;;;;45.67;11.50;;;6.90;97.20;;;;;;5072988;28;20484;-60
2022/11/03 03:15:46;;;;;;;27.43;8.40;;;;;;;;;;5070741;28;20482;-60
2022/11/03 03:18:21;;;;;;;55.13;12.30;;;9.40;98.30;;;;;;5063783;28;20993;-60
2022/11/03 03:20:54;;;;;;;44.73;9.07;;;6.90;97.20;;;;;;5072699;28;20492;-61
2022/11/03 03:23:25;;;;;;;47.77;14.47;;;6.90;97.10;;;;;;5068159;28;20475;-60
2022/11/03 03:25:55;;;;;;;37.60;9.03;;;;;;;;;;5076428;28;21013;-61
2022/11/03 03:28:27;;;;;;;46.13;14.73;;;6.80;97.00;;;;;;5068249;28;20497;-62
2022/11/03 03:30:56;;;;;;;24.43;9.73;;;;;;;;;;5078753;28;20485;-61
2022/11/03 03:33:25;;;;;;;40.00;9.50;;;6.70;97.30;;;;;;5071963;28;21010;-62
2022/11/03 03:35:54;;;;;;;28.83;9.27;;;6.70;97.20;;;;;;5070315;28;20474;-62
2022/11/03 03:38:23;;;;;;;44.37;15.50;;;;;;;;;;5067934;28;20478;-61
2022/11/03 03:40:53;;;;;;;29.23;9.30;;;6.70;97.60;;;;;;5069786;28;20586;-61
2022/11/03 03:43:22;;;;;;;45.90;13.40;;;6.70;97.40;;;;;;5080519;28;20518;-62
2022/11/03 03:45:53;;;;;;;32.20;9.30;;;6.60;97.50;;;;;;5070852;28;20493;-62
2022/11/03 03:48:20;;;;;;;51.10;13.03;;;6.50;97.80;;;;;;5065833;28;20494;-61
2022/11/03 03:50:49;;;;;;;56.67;9.83;;;;;;;;;;5073689;28;20474;-62
2022/11/03 03:53:17;;;;;;;57.97;11.87;;;6.50;97.70;;;;;;5073485;28;20482;-62
2022/11/03 03:55:47;;;;;;;44.00;10.70;;;;;;;;;;5071081;28;20597;-62
2022/11/03 03:58:15;;;;;;;39.27;10.87;;;6.50;97.70;;;;;;5068181;28;20927;-61
2022/11/03 04:00:43;;;;;;;29.47;7.03;;;;;;;;;;5074509;28;20493;-62
2022/11/03 04:03:14;;;;;;;40.40;10.47;;;;;;;;;;5070606;28;20474;-62
2022/11/03 04:05:41;;;;;;;36.27;9.80;;;;;;;;;;5070601;28;20479;-62
2022/11/03 04:08:07;;;;;;;40.30;10.23;;;6.30;98.60;;;;;;5066973;28;20475;-62
2022/11/03 04:10:34;;;;;;;45.43;10.77;;;6.20;98.90;;;;;;5056769;28;20909;-62
2022/11/03 04:24:00;;;;;;;31.37;9.70;;;;;;;;;;5073528;28;20985;-60
2022/11/03 04:26:28;;;;;;;40.80;11.20;;;6.50;98.40;;;;;;5071063;28;20500;-60
2022/11/03 04:28:55;;;;;;;18.87;7.80;;;6.60;98.50;;;;;;5064152;28;20495;-60
2022/11/03 04:31:23;;;;;;;38.60;11.90;;;;;;;;;;5072461;28;20474;-60
2022/11/03 04:33:51;;;;;;;40.33;9.73;;;6.50;98.30;;;;;;5070908;28;22154;-60
2022/11/03 04:36:19;;;;;;;46.70;10.37;;;6.40;98.10;;;;;;5074176;28;20504;-61
2022/11/03 04:38:46;;;;;;;25.33;9.40;;;;;;;;;;5070119;28;20474;-61
2022/11/03 04:41:16;;;;;;;39.87;10.40;;;;;;;;;;5073112;28;21135;-61
2022/11/03 04:43:43;;;;;;;30.13;8.00;;;6.30;97.90;;;;;;5073473;28;20577;-61
2022/11/03 04:46:12;;;;;;;28.73;8.90;;;6.30;98.00;;;;;;5070569;28;21009;-61
2022/11/03 04:48:39;;;;;;;35.27;9.20;;;;;;;;;;5064137;28;20570;-61
2022/11/03 04:51:14;;;;;;;36.83;8.57;;;;;;;;;;5072111;28;21056;-61
2022/11/03 04:53:48;;;;;;;29.90;9.93;;;6.40;98.30;;;;;;5072243;28;20490;-61
2022/11/03 04:56:17;;;;;;;45.83;10.70;;;6.50;98.40;;;;;;5071766;28;20589;-61
2022/11/03 04:58:46;;;;;;;41.13;9.77;;;;;;;;;;5058174;28;20838;-61
2022/11/03 05:01:14;;;;;;;43.70;10.07;;;;;;;;;;5079435;28;20503;-61
2022/11/03 05:03:42;;;;;;;26.13;8.47;;;6.60;98.20;;;;;;5071494;28;20868;-61
2022/11/03 05:06:14;;;;;;;38.40;9.57;;;6.60;98.00;;;;;;5087395;28;20485;-62
2022/11/03 05:08:42;;;;;;;34.07;10.03;;;6.60;97.90;;;;;;5064288;28;20498;-61
2022/11/03 05:11:21;;;;;;;37.77;11.13;;;6.50;97.90;;;;;;5069471;28;21040;-62
2022/11/03 05:13:48;;;;;;;38.47;9.30;;;6.50;98.10;;;;;;5073300;28;21266;-62
2022/11/03 05:16:16;;;;;;;55.60;12.43;;;6.50;98.40;;;;;;5065715;28;20467;-61
2022/11/03 05:18:44;;;;;;;29.77;8.70;;;;;;;;;;5069264;28;21025;-61
2022/11/03 05:21:15;;;;;;;24.97;8.00;;;6.60;98.20;;;;;;5070265;28;20482;-61
2022/11/03 05:23:44;;;;;;;21.97;8.23;;;;;;;;;;5062674;28;20487;-60
2022/11/03 05:26:14;;;;;;;36.10;9.17;;;;;;;;;;5074108;28;20474;-61
2022/11/03 05:28:42;;;;;;;44.47;8.90;;;6.70;97.90;;;;;;5068628;28;20479;-61
2022/11/03 05:31:22;;;;;;;42.13;10.93;;;6.60;97.90;;;;;;5060362;28;20482;-61
2022/11/03 05:33:50;;;;;;;30.77;9.60;;;6.40;98.20;;;;;;5073783;28;20470;-61
2022/11/03 05:36:21;;;;;;;36.47;12.13;;;6.30;98.90;;;;;;5067711;28;20478;-61
2022/11/03 05:38:48;;;;;;;40.67;11.03;;;6.20;98.70;;;;;;5066247;28;20567;-61
2022/11/03 05:41:17;;;;;;;28.73;12.17;;;;;;;;;;5076885;28;20910;-62
2022/11/03 05:43:43;;;;;;;35.60;8.60;;;6.20;98.70;;;;;;5077162;28;20539;-61
2022/11/03 05:46:11;;;;;;;38.00;10.10;;;;;;;;;;5076227;28;20470;-61
2022/11/03 05:48:40;;;;;;;44.30;12.90;;;;;;;;;;5072082;28;20482;-61
2022/11/03 05:51:15;;;;;;;51.43;17.37;;;6.40;98.60;;;;;;5078045;28;20986;-61
2022/11/03 05:53:45;;;;;;;31.43;13.60;;;;;;;;;;5069948;28;20703;-61
2022/11/03 05:56:17;;;;;;;33.50;9.90;;;;;;;;;;5072426;28;20490;-61
2022/11/03 05:58:45;;;;;;;26.37;9.17;;;6.50;98.80;;;;;;5082463;28;20631;-61
2022/11/03 06:01:16;;;;;;;43.63;12.07;;;6.50;98.80;;;;;;5068065;28;20516;-61
2022/11/03 06:03:43;;;;;;;40.37;11.00;;;6.60;99.10;;;;;;5069222;28;20497;-61
2022/11/03 06:06:16;;;;;;;35.93;10.40;;;6.60;98.80;;;;;;5039184;28;20558;-61
2022/11/03 06:08:44;;;;;;;42.30;10.00;;;;;;;;;;5081574;28;20482;-61
2022/11/03 06:11:19;;;;;;;59.23;12.33;;;6.80;98.70;;;;;;5055876;28;20512;-61
2022/11/03 06:13:46;;;;;;;71.27;24.00;;;6.70;98.60;;;;;;5019207;28;20494;-61
2022/11/03 06:16:30;;;;;;;41.60;12.93;;;6.60;98.50;;;;;;5069987;28;20466;-61
2022/11/03 06:18:57;;;;;;;28.53;9.73;;;;;;;;;;5049667;28;20477;-61
2022/11/03 06:21:25;;;;;;;37.93;12.40;;;6.60;98.60;;;;;;5080697;28;20849;-61
2022/11/03 06:23:54;;;;;;;34.33;11.10;;;;;;;;;;5076375;28;20488;-61
2022/11/03 06:26:23;;;;;;;41.50;14.03;;;;;;;;;;5070120;28;20470;-61
2022/11/03 06:28:50;;;;;;;27.17;9.57;;;;;;;;;;5065864;28;20798;-61
2022/11/03 06:31:20;;;;;;;40.07;13.80;;;6.50;98.50;;;;;;5076793;28;20477;-61
2022/11/03 06:33:49;;;;;;;46.67;10.77;;;6.60;98.50;;;;;;5072877;28;20897;-61
2022/11/03 06:36:19;;;;;;;45.70;12.77;;;6.60;98.50;;;;;;5073746;28;20572;-61
2022/11/03 06:38:50;;;;;;;42.10;10.50;;;6.60;98.60;;;;;;5067845;28;20497;-61
2022/11/03 06:41:23;;;;;;;39.60;12.20;;;6.60;98.90;;;;;;5075372;28;20493;-61
2022/11/03 06:43:51;;;;;;;41.43;10.97;;;;;;;;;;5071266;28;20553;-62
2022/11/03 06:46:20;;;;;;;43.83;15.20;;;;;;;;;;5066225;28;20998;-61
2022/11/03 06:48:48;;;;;;;31.53;10.50;;;6.80;98.70;;;;;;5066669;28;20498;-61
2022/11/03 06:51:18;;;;;;;48.37;15.93;;;6.80;98.50;;;;;;5074004;28;20487;-61
2022/11/03 06:53:46;;;;;;;37.87;13.87;;;6.80;98.80;;;;;;5073990;28;20475;-62
2022/11/03 06:56:15;;;;;;;45.53;13.40;;;6.80;98.60;;;;;;5067256;28;20963;-62
2022/11/03 06:58:44;;;;;;;48.93;17.20;;;;;;;;;;5070059;28;20487;-61
2022/11/03 07:01:15;;;;;;;53.90;18.33;;;6.70;99.00;;;;;;5073191;28;20554;-61
2022/11/03 07:03:42;;;;;;;48.37;19.10;;;6.70;99.30;;;;;;5063193;28;20590;-61
2022/11/03 07:06:17;;;;;;;40.47;16.10;;;6.70;99.30;;;;;;5070950;27;20858;-62
2022/11/03 07:08:47;;;;;;;20.87;10.37;;;;;;;;;;5060065;28;20481;-61
2022/11/03 07:11:17;;;;;;;39.93;11.00;;;6.70;99.20;;;;;;5065160;28;20486;-61
2022/11/03 07:13:47;;;;;;;43.67;9.80;;;6.70;99.30;;;;;;5062596;28;20592;-61
2022/11/03 07:16:19;;;;;;;33.47;13.23;;;6.80;99.30;;;;;;5082327;28;20478;-61
2022/11/03 07:18:46;;;;;;;38.27;11.90;;;6.90;99.30;;;;;;5069469;28;20479;-61
2022/11/03 07:21:29;;;;;;;47.90;11.67;;;7.00;99.40;;;;;;5073910;28;20607;-61
2022/11/03 07:23:57;;;;;;;43.33;14.37;;;;;;;;;;5074082;28;20495;-61
2022/11/03 07:26:24;;;;;;;66.00;18.07;;;7.20;99.30;;;;;;5073042;28;21875;-61
2022/11/03 07:28:53;;;;;;;24.93;13.17;;;7.40;99.60;;;;;;5066016;28;20981;-62
2022/11/03 07:31:23;;;;;;;44.50;18.00;;;7.50;99.60;;;;;;5076974;28;20532;-62
2022/11/03 07:33:55;;;;;;;46.07;15.20;;;7.70;99.80;;;;;;5075902;28;20478;-62
2022/11/03 07:36:24;;;;;;;56.50;21.43;;;7.90;99.60;;;;;;5072139;28;20479;-61
2022/11/03 07:38:53;;;;;;;33.40;12.60;;;8.00;99.30;;;;;;5069706;28;20506;-63
2022/11/03 07:41:24;;;;;;;53.53;17.87;;;8.10;98.80;;;;;;5073895;28;21109;-62
2022/11/03 07:43:54;;;;;;;64.67;16.03;;;;;;;;;;5065555;28;20504;-62
2022/11/03 07:46:22;;;;;;;65.70;16.47;;;8.70;99.50;;;;;;5077246;28;20494;-62
2022/11/03 07:48:52;;;;;;;46.90;14.67;;;9.10;99.30;;;;;;5063617;28;21067;-63
2022/11/03 07:51:21;;;;;;;50.10;17.87;;;;;;;;;;5069537;28;20489;-62
2022/11/03 07:53:50;;;;;;;30.80;13.57;;;9.70;98.00;;;;;;5071552;28;20478;-62
2022/11/03 07:56:20;;;;;;;61.07;21.00;;;10.10;97.70;;;;;;5074034;28;21020;-63
2022/11/03 07:58:49;;;;;;;39.50;18.07;;;10.40;97.30;;;;;;5066435;28;20474;-62
2022/11/03 08:01:29;;;;;;;51.30;19.10;;;10.40;96.50;;;;;;5073918;28;20991;-62
2022/11/03 08:03:57;;;;;;;31.07;14.70;;;;;;;;;;5073941;28;20487;-62
2022/11/03 08:06:24;;;;;;;44.63;15.93;;;;;;;;;;5069972;28;20986;-62
2022/11/03 08:08:51;;;;;;;44.30;13.07;;;9.70;97.80;;;;;;5069353;28;21233;-61
2022/11/03 08:11:18;;;;;;;45.70;17.10;;;9.50;98.00;;;;;;5074576;28;20478;-60
2022/11/03 08:13:45;;;;;;;33.07;10.23;;;9.40;98.30;;;;;;5071520;28;20470;-61
2022/11/03 08:16:12;;;;;;;42.83;13.60;;;9.30;98.40;;;;;;5059386;28;20473;-60
2022/11/03 08:18:40;;;;;;;23.80;9.83;;;9.30;99.00;;;;;;5066399;28;20576;-60
2022/11/03 08:21:07;;;;;;;31.83;10.73;;;;;;;;;;5055499;28;20493;-60
2022/11/03 08:23:34;;;;;;;30.43;10.20;;;9.20;99.50;;;;;;5066117;28;20697;-60
2022/11/03 08:26:01;;;;;;;28.57;10.93;;;9.20;99.70;;;;;;5068615;28;20833;-60
2022/11/03 08:28:28;;;;;;;29.37;9.80;;;;;;;;;;5061639;28;20779;-60
2022/11/03 08:31:00;;;;;;;22.63;10.47;;;;;;;;;;5069576;28;20493;-60
2022/11/03 08:33:27;;;;;;;36.33;14.53;;;;;;;;;;5069621;28;20480;-60
2022/11/03 08:35:55;;;;;;;43.33;14.53;;;9.50;99.90;;;;;;5070482;28;21105;-61
2022/11/03 08:38:21;;;;;;;48.20;18.63;;;9.50;99.90;;;;;;5052740;28;20493;-61
2022/11/03 08:40:48;;;;;;;44.77;14.23;;;;;;;;;;5064893;28;20492;-61
2022/11/03 08:43:15;;;;;;;34.67;14.67;;;9.70;99.90;;;;;;5069192;28;20479;-61
2022/11/03 08:45:42;;;;;;;37.70;10.53;;;9.80;99.90;;;;;;5071166;28;20501;-60
2022/11/03 08:48:09;;;;;;;35.50;12.27;;;9.80;99.90;;;;;;5062017;28;20975;-60
2022/11/03 08:50:35;;;;;;;34.23;12.57;;;9.70;99.90;;;;;;5064786;28;20518;-61
2022/11/03 08:53:03;;;;;;;22.80;11.23;;;9.80;99.90;;;;;;5062489;28;20492;-60
2022/11/03 08:55:30;;;;;;;27.13;12.60;;;9.80;99.90;;;;;;5069424;28;20747;-60
2022/11/03 08:57:57;;;;;;;40.17;13.40;;;9.90;99.90;;;;;;5066062;28;20479;-60
2022/11/03 09:00:24;;;;;;;35.50;13.37;;;;;;;;;;5072888;28;20850;-61
2022/11/03 09:02:51;;;;;;;26.80;10.07;;;;;;;;;;5072212;28;20790;-61
2022/11/03 09:05:18;;;;;;;39.37;14.40;;;10.30;99.90;;;;;;5070057;28;20824;-62
2022/11/03 09:07:45;;;;;;;33.80;10.30;;;10.60;99.90;;;;;;5067334;28;20482;-61
2022/11/03 09:10:13;;;;;;;29.77;12.97;;;10.90;99.90;;;;;;5068299;28;20478;-61
2022/11/03 09:12:40;;;;;;;38.20;14.20;;;;;;;;;;5070477;28;20488;-62
2022/11/03 09:15:07;;;;;;;38.60;15.93;;;;;;;;;;5072960;28;20907;-61
2022/11/03 09:17:34;;;;;;;28.30;15.90;;;;;;;;;;5067962;28;20505;-61
2022/11/03 09:20:01;;;;;;;46.13;16.00;;;11.80;99.90;;;;;;5072663;28;20470;-61
2022/11/03 09:22:28;;;;;;;36.97;16.03;;;11.90;99.90;;;;;;5081856;28;20473;-61
2022/11/03 09:24:55;;;;;;;35.93;13.27;;;12.00;99.90;;;;;;5077427;28;20825;-61
2022/11/03 09:27:23;;;;;;;43.20;17.53;;;11.90;99.90;;;;;;5071559;28;20483;-60
2022/11/03 09:29:50;;;;;;;42.47;12.30;;;12.10;99.90;;;;;;5066086;28;20474;-61
2022/11/03 09:32:17;;;;;;;46.03;14.27;;;;;;;;;;5081757;28;20501;-60
2022/11/03 09:34:44;;;;;;;29.13;10.30;;;;;;;;;;5071128;28;21175;-61
2022/11/03 09:37:11;;;;;;;34.00;13.70;;;;;;;;;;5070320;28;20505;-61
2022/11/03 09:39:38;;;;;;;40.23;10.10;;;13.10;99.90;;;;;;5077216;28;20477;-61
2022/11/03 09:42:06;;;;;;;66.13;22.70;;;13.60;99.90;;;;;;5078797;28;20473;-61
2022/11/03 09:44:34;;;;;;;20.60;9.50;;;14.10;99.90;;;;;;5078674;28;20485;-61
2022/11/03 09:47:01;;;;;;;34.50;11.13;;;14.40;99.90;;;;;;5060662;28;21014;-61
2022/11/03 09:49:30;;;;;;;36.20;10.77;;;14.60;99.90;;;;;;5080997;28;20482;-61
2022/11/03 09:51:57;;;;;;;37.13;10.53;;;;;;;;;;5068318;28;20482;-61
2022/11/03 09:54:25;;;;;;;35.50;11.97;;;;;;;;;;5074898;28;20704;-61
2022/11/03 09:56:52;;;;;;;29.77;12.90;;;15.10;99.90;;;;;;5071214;28;20574;-61
2022/11/03 09:59:20;;;;;;;36.87;13.90;;;;;;;;;;5070787;28;20884;-62
2022/11/03 10:01:52;;;;;;;19.43;8.30;;;15.20;99.90;;;;;;5069373;28;20493;-62
2022/11/03 10:04:25;;;;;;;32.50;11.97;;;14.90;98.00;;;;;;5080585;28;20501;-62
2022/11/03 10:06:51;;;;;;;35.37;14.23;;;14.70;98.90;;;;;;5063813;28;20535;-62
2022/11/03 10:09:22;;;;;;;37.67;12.97;;;14.60;99.10;;;;;;5079266;28;20473;-62
2022/11/03 10:11:50;;;;;;;30.10;8.40;;;14.70;99.30;;;;;;5071949;28;20821;-62
2022/11/03 10:14:18;;;;;;;38.30;11.80;;;;;;;;;;5071059;28;20481;-62
2022/11/03 10:16:51;;;;;;;28.43;10.53;;;14.50;98.60;;;;;;5064957;28;20816;-62
2022/11/03 10:19:18;;;;;;;30.73;12.27;;;14.00;99.00;;;;;;5068754;28;20482;-62
2022/11/03 10:21:45;;;;;;;20.83;7.10;;;14.40;99.00;;;;;;5079421;28;20475;-63
2022/11/03 10:24:13;;;;;;;45.67;12.23;;;14.40;99.40;;;;;;5079148;28;21177;-62
2022/11/03 10:26:45;;;;;;;48.63;11.10;;;14.40;99.40;;;;;;5074122;28;20897;-62
2022/11/03 10:29:18;;;;;;;43.83;10.37;;;;;;;;;;5078001;28;20477;-62
2022/11/03 10:31:48;;;;;;;35.47;9.37;;;14.50;99.90;;;;;;5073064;28;20474;-62
2022/11/03 10:34:35;;;;;;;37.97;10.53;;;14.60;99.10;;;;;;5075767;28;20787;-62
2022/11/03 10:37:19;;;;;;;29.53;8.13;;;14.70;99.90;;;;;;5075483;28;20810;-62
2022/11/03 10:39:47;;;;;;;62.27;10.60;;;14.60;99.30;;;;;;5065748;28;20476;-61
2022/11/03 10:42:20;;;;;;;41.27;9.97;;;14.70;99.20;;;;;;5072141;28;20509;-61
2022/11/03 10:44:47;;;;;;;35.90;7.00;;;;;;;;;;5067510;28;20995;-62
2022/11/03 10:47:23;;;;;;;28.83;7.80;;;;;;;;;;5073013;28;20802;-61
2022/11/03 10:49:53;;;;;;;45.30;9.40;;;14.80;98.60;;;;;;5065681;28;20661;-61
2022/11/03 10:52:21;;;;;;;226.80;21.43;;;;;;;;;;5077878;28;20569;-61
2022/11/03 10:54:48;;;;;;;46.37;8.63;;;14.80;98.60;;;;;;5072882;28;20479;-61
2022/11/03 10:57:16;;;;;;;26.70;8.57;;;14.70;97.70;;;;;;5071610;28;21045;-61
2022/11/03 10:59:45;;;;;;;27.83;6.83;;;;;;;;;;5069107;28;20485;-61
2022/11/03 11:02:17;;;;;;;26.23;6.83;;;14.80;98.10;;;;;;5056291;28;20477;-61
2022/11/03 11:04:46;;;;;;;45.23;6.43;;;14.70;98.20;;;;;;5072443;28;20474;-61
2022/11/03 11:07:22;;;;;;;26.10;6.43;;;14.70;98.00;;;;;;5069440;28;20555;-61
2022/11/03 11:09:49;;;;;;;16.23;5.73;;;;;;;;;;5068374;28;20561;-61
2022/11/03 11:12:18;;;;;;;28.77;8.10;;;14.60;97.80;;;;;;5069631;28;20495;-61
2022/11/03 11:14:53;;;;;;;15.83;5.20;;;14.70;98.30;;;;;;5073944;28;20482;-61
2022/11/03 11:17:40;;;;;;;43.00;9.00;;;;;;;;;;5063809;28;20474;-61
2022/11/03 11:20:35;;;;;;;38.43;7.43;;;14.90;97.90;;;;;;5067264;28;20838;-62
2022/11/03 11:23:48;;;;;;;39.13;6.47;;;15.00;98.20;;;;;;5074932;28;21045;-61
2022/11/03 11:26:32;;;;;;;33.47;6.50;;;15.10;98.50;;;;;;5074896;28;20474;-60
2022/11/03 11:29:42;;;;;;;28.37;5.87;;;15.20;97.20;;;;;;5072903;28;20494;-62
2022/11/03 11:32:51;;;;;;;34.20;7.20;;;15.20;97.40;;;;;;5070603;28;20511;-61
2022/11/03 11:35:39;;;;;;;49.07;10.37;;;;;;;;;;5061180;28;20486;-61
2022/11/03 11:38:43;;;;;;;31.60;8.60;;;15.10;97.60;;;;;;5071197;28;20496;-62
2022/11/03 11:41:10;;;;;;;30.53;9.37;;;;;;;;;;5070115;28;20451;-61
2022/11/03 11:43:38;;;;;;;29.33;7.47;;;15.10;98.20;;;;;;5073831;28;20475;-60
2022/11/03 11:46:40;;;;;;;40.47;11.57;;;14.90;97.40;;;;;;5071058;28;20497;-62
2022/11/03 11:49:19;;;;;;;32.33;9.57;;;;;;;;;;5070058;28;21094;-61
2022/11/03 11:51:46;;;;;;;36.50;8.30;;;;;;;;;;5068514;28;20605;-62
2022/11/03 11:54:17;;;;;;;24.87;7.43;;;14.80;98.00;;;;;;5064670;28;20490;-61
2022/11/03 11:56:46;;;;;;;36.33;7.60;;;14.80;97.60;;;;;;5077114;28;20479;-62
2022/11/03 11:59:19;;;;;;;21.80;7.83;;;14.80;97.90;;;;;;5065559;28;20486;-61
2022/11/03 12:01:50;;;;;;;29.83;7.77;;;14.80;97.60;;;;;;5067403;28;20674;-61
2022/11/03 12:04:20;;;;;;;38.23;10.90;;;14.80;97.90;;;;;;5059664;28;20498;-61
2022/11/03 12:06:47;;;;;;;41.20;11.23;;;;;;;;;;5069324;28;20486;-61
2022/11/03 12:09:19;;;;;;;35.50;8.50;;;14.80;97.80;;;;;;5058430;28;20479;-61
2022/11/03 12:11:47;;;;;;;30.07;7.20;;;14.80;97.90;;;;;;5079013;28;20485;-61
2022/11/03 12:14:32;;;;;;;32.63;8.73;;;14.90;97.60;;;;;;5067386;28;20483;-61
2022/11/03 12:17:19;;;;;;;35.57;10.40;;;14.80;98.00;;;;;;5065255;28;20567;-62
2022/11/03 12:19:49;;;;;;;39.80;8.40;;;14.80;97.80;;;;;;5070148;28;20566;-62
2022/11/03 12:22:41;;;;;;;39.77;11.47;;;14.70;97.90;;;;;;5070624;28;20477;-61
2022/11/03 12:25:22;;;;;;;66.50;11.27;;;;;;;;;;5062061;28;20891;-61
2022/11/03 12:27:51;;;;;;;53.13;9.83;;;14.60;97.70;;;;;;5069478;28;20478;-62
2022/11/03 12:30:19;;;;;;;41.33;12.63;;;14.70;98.00;;;;;;5064089;28;20571;-61
2022/11/03 12:32:47;;;;;;;31.87;8.80;;;;;;;;;;5064958;28;20555;-61
2022/11/03 12:35:15;;;;;;;46.87;9.50;;;14.70;97.90;;;;;;5069698;28;20544;-61
2022/11/03 12:37:42;;;;;;;28.70;8.67;;;14.70;97.60;;;;;;5069071;28;20506;-62
2022/11/03 12:40:12;;;;;;;44.77;8.30;;;14.80;97.70;;;;;;5067037;28;20864;-61
2022/11/03 12:42:39;;;;;;;27.67;8.53;;;;;;;;;;5070289;28;20561;-61
2022/11/03 12:45:07;;;;;;;29.23;7.37;;;;;;;;;;5066053;28;20502;-61
2022/11/03 12:47:33;;;;;;;31.47;8.27;;;14.60;97.50;;;;;;5061123;28;20509;-61
2022/11/03 12:50:00;;;;;;;24.27;7.60;;;14.70;97.90;;;;;;5065786;28;20479;-61
2022/11/03 12:52:29;;;;;;;27.37;10.60;;;14.60;97.60;;;;;;5066743;28;20478;-62
2022/11/03 12:54:56;;;;;;;17.23;6.30;;;;;;;;;;5061162;28;20818;-62
2022/11/03 12:57:22;;;;;;;39.63;11.70;;;14.60;98.00;;;;;;5065221;28;20489;-62
2022/11/03 12:59:50;;;;;;;30.33;8.63;;;14.60;97.90;;;;;;5069743;28;20501;-62
2022/11/03 13:02:17;;;;;;;27.93;9.90;;;;;;;;;;5074027;28;20485;-61
2022/11/03 13:04:44;;;;;;;34.77;8.33;;;;;;;;;;5064886;28;20770;-61
2022/11/03 13:07:11;;;;;;;33.57;8.90;;;14.60;97.90;;;;;;5067608;28;20497;-61
2022/11/03 13:09:39;;;;;;;29.40;8.70;;;;;;;;;;5064438;28;20600;-61
2022/11/03 13:14:55;;;;;;;41.07;12.23;;;14.60;97.70;;;;;;5074427;28;20489;-62
2022/11/03 13:17:22;;;;;;;59.93;15.83;;;14.40;97.90;;;;;;5072148;28;20470;-62
2022/11/03 13:19:49;;;;;;;37.93;8.67;;;14.40;98.00;;;;;;5074334;28;20482;-61
2022/11/03 13:22:16;;;;;;;46.90;8.70;;;14.40;98.10;;;;;;5070391;28;20481;-61
2022/11/03 13:24:44;;;;;;;50.30;12.00;;;;;;;;;;5070978;28;20479;-61
2022/11/03 13:27:11;;;;;;;45.87;11.23;;;;;;;;;;5071447;28;20989;-61
2022/11/03 13:29:38;;;;;;;52.23;11.13;;;14.40;98.20;;;;;;5069305;28;21267;-61
2022/11/03 13:32:06;;;;;;;40.90;10.90;;;14.40;98.40;;;;;;5073493;28;20482;-62
2022/11/03 13:34:33;;;;;;;52.20;12.63;;;14.40;98.30;;;;;;5064732;28;20862;-62
2022/11/03 13:37:00;;;;;;;64.63;11.57;;;;;;;;;;5069049;28;20490;-62
2022/11/03 13:39:27;;;;;;;43.73;13.50;;;;;;;;;;5072624;28;20486;-62
2022/11/03 13:41:55;;;;;;;44.43;9.00;;;14.50;98.20;;;;;;5069931;28;20491;-61